Waarschuwingen Friesland

Code Groen. Er zijn momenteel geen waarschuwingen van kracht.

no warning

Bron: KNMI


Webcam Zuidwest  Webcam Zuidwest


Onweer radar more information blitzortung!


Regen radar more information rain snow radar


Weerstation Noordbergum

Weerstation Luyksgestel

Website Noardburgum


U vindt ons ook hier:

Het Weer Aktueel

UK Metoffice

European Weather Network

Weather Underground

AWEKAS

Citizen Weather Observer Program (CWOP)

HAMweather, WeatherForYou, PWS Weather



METAR rapporten vliegvelden

   
EHLW - Leeuwarden Rnlaf, Netherlands
Afstand tot: W 17 km
Gewijzigd: 03-02-2023 06:56
Grotendeels bewolkt  
Grotendeels bewolkt  
   Wind: Westen 40.7 km/h
Wind: Westen 40.7 km/h
Temperatuur: 9°C
Voelt als: 4°C
Dauwpunt: 6°C
Vochtigheid: 82%
Barometer: 1019 hPa
Bewolking: Grotendeels bewolkt
Zicht: meer dan 10 km
Bewolking: Licht bewolkt 3000 ft,
Gedeeltelijk bewolkt 3600 ft,
Grotendeels bewolkt 4000 ft
EHLW 030556Z AUTO 27022KT 9999 FEW030 SCT036 BKN040 09/06 Q1019 BLU
EHMA - Awg-1 Sea, Netherlands
Afstand tot: N 31 km
Gewijzigd: 03-02-2023 06:55
Gedeeltelijk bewolkt  
Gedeeltelijk bewolkt  
   Wind: Westen 55.6 km/h
Wind: Westen 55.6 km/h
Temperatuur: 8°C
Voelt als: 3°C
Dauwpunt: 6°C
Vochtigheid: 87%
Barometer: 1017 hPa
Bewolking: Gedeeltelijk bewolkt
Zicht: 9 km
Bewolking: Licht bewolkt 1300 ft,
Gedeeltelijk bewolkt 1600 ft
EHMA 030555Z AUTO 27030KT 9000 FEW013 SCT016 08/06 Q1017
EHGG - Groningen/Eelde, Netherlands
Afstand tot: OZO 40 km
Gewijzigd: 03-02-2023 06:55
Bewolking  
Bewolking  
   Wind: Westen 33.3 km/h
Wind: Westen 33.3 km/h
Temperatuur: 9°C
Voelt als: 5°C
Dauwpunt: 6°C
Vochtigheid: 82%
Barometer: 1018 hPa
Bewolking: Bewolking
Zicht: meer dan 10 km
Bewolking: Bewolking 1600 ft
EHGG 030555Z AUTO 26018KT 220V300 9999 OVC016 09/06 Q1018 NOSIG
EHVL - Vlieland Island, Netherlands
Afstand tot: W 72 km
Gewijzigd: 03-02-2023 07:05
Nevel, Grotendeels bewolkt  
Nevel, Grotendeels bewolkt  
   Wind: Westen 51.9 km/h
Wind: Westen 51.9 km/h
Temperatuur: 8°C
Voelt als: 3°C
Dauwpunt: 6°C
Vochtigheid: 87%
Barometer: 1019 hPa
Bewolking: Grotendeels bewolkt
Zicht: 8 km
Bewolking: Licht bewolkt 1400 ft,
Grotendeels bewolkt 4500 ft,
Grotendeels bewolkt 5000 ft
EHVL 030605Z AUTO 27028KT 8000 BR FEW014 BKN045 BKN050 08/06 Q1019 BLU
EHMG - L9-Ff-1 Sea, Netherlands
Afstand tot: WNW 81 km
Gewijzigd: 03-02-2023 06:55
Grotendeels bewolkt  
Grotendeels bewolkt  
   Wind: Westen 55.6 km/h
Wind: Westen 55.6 km/h
Temperatuur: 9°C
Voelt als: 4°C
Dauwpunt: 6°C
Vochtigheid: 82%
Barometer: 1019 hPa
Bewolking: Grotendeels bewolkt
Zicht: 6 km
Bewolking: Licht bewolkt 1700 ft,
Gedeeltelijk bewolkt 4000 ft,
Grotendeels bewolkt 4500 ft
EHMG 030555Z AUTO 27030KT 6000 FEW017 SCT040 BKN045 09/06 Q1019
EHKD - De Kooy (navy), Netherlands
Afstand tot: WZW 89 km
Gewijzigd: 03-02-2023 06:55
Bewolking  
Bewolking  
   Wind: Westen 40.7 km/h
Wind: Westen 40.7 km/h
Temperatuur: 9°C
Voelt als: 4°C
Dauwpunt: 6°C
Vochtigheid: 82%
Barometer: 1021 hPa
Bewolking: Bewolking
Zicht: meer dan 10 km
Bewolking: Grotendeels bewolkt 2200 ft,
Bewolking 3300 ft
EHKD 030555Z AUTO 27022KT 9999 BKN022 OVC033 09/06 Q1021 WHT TEMPO SCT015 BKN020

Script ontwikkeld door  Saratoga-weather.org Aangepast voor de template door  Weerstation Leuven

Apparatuur in gebruik:

Weerstation
Davis Vantage pro 2

Weerprogramma
Meteobridge

Weercomputer
Meteobridge Nano SD

Webleverancier
Versio

Davis Vantage pro 2

Meteobridge

Meteobridge Nano SD

Versio